OJAI/AMM METAR and TAF weather

Enter ICAO airport designator
Station Type Date Time Source
OJAI METAR 2021/01/22 06:00 UTC NOAA

OJAI 220600Z 08012KT 6000 NSC 03/M03 Q1029 NOSIG


Station Type Date Time Source
OJAI Decoded METAR 2021/01/22 06:00 UTC NOAA

Queen Alia Airport, Jordan (OJAI) 31-40N 035-58E
Jan 22, 2021 - 01:00 AM EST / 2021.01.22 0600 UTC
Wind: from the E (080 degrees) at 14 MPH (12 KT):0
Visibility: 3 mile(s):0
Temperature: 37 F (3 C)
Dew Point: 26 F (-3 C)
Relative Humidity: 64%
Pressure (altimeter): 30.39 in. Hg (1029 hPa)
ob: OJAI 220600Z 08012KT 6000 NSC 03/M03 Q1029 NOSIG
cycle: 6

Station Type Date Time Source
OJAI TAF 2021/01/22 06:48 UTC NOAA

TAF TAF OJAI 220500Z 2206/2312 12010KT 6000 NSC
TEMPO 2212/2218 13018KT PROB30 2212/2215 3000 BLDU PROB40 2302/2306 VRB01KT 2000 BR

Example: see airport list